Comodoro Rivadavia, Argentina
Current Conditions -  °F | °C
As of 3:00 PM on Tuesday 21 Oct 2014 (Local Time) from SAVC Reporting Station
Broken Clouds Broken Clouds  
Wind Chill: 26°   Ceiling: 20000
Heat Index: 26°   Visibility: 6mi
Dew Point:   Wind: 28mph
Humidity: 23%   Direction: 320°NW
Pressure: 29.53"   Gusts: NA
Location:  45.86°S, 67.49°W
Report Text: SAVC 211800Z 32024KT 9999 SCT040 BKN20026/03 Q1000
Loading
Personal Weather Stations






























Interactive Weather Map
Tropical Storm Tracking
New forecast layout! Learn more

10-Day Weather Forecast

Advertisements
Track Severe Weather on mobile